Bulk Hong Kong — 3EEW4 — position and weather

sailwx.info

Track history (hours):
 
Tides and Currents Weather Stations Pressure Air Temp Water Temp Dewpoint Dewpoint Depression Visibility Wind Speed Wind Dir Waves Ship Positions

Bulk Hong Kong

Last reported at 2015-Jan-27 17:20 UTC. Time now 2015-Jan-30 04:53 UTC.
Position N 22°04' E 114°32'.

Length 289 m; draft 10.8 m.

Type: Cargo ship. MMSI: 371828000.

Date/timePositionNaut miles runAvg speedWind from/ knotsBaromVisibWave heightAir tempDewpointWater temp
2015-Jan-27 17:20N 22°04' E 114°32'0 0.0
2015-Jan-27 16:23N 22°04' E 114°32'0 0.0
2015-Jan-27 00:27N 22°04' E 114°32'0 0.2
2015-Jan-26 22:16N 22°04' E 114°32'3 4.3
2015-Jan-26 21:33N 22°04' E 114°29'1010.2
2015-Jan-26 20:33N 22°07' E 114°18'1010.5
2015-Jan-26 19:34N 22°08' E 114°07'3 1.2
2015-Jan-26 17:29N 22°10' E 114°07'2 0.6
2015-Jan-26 13:15N 22°09' E 114°09'5 6.1
2015-Jan-26 12:30N 22°08' E 114°14'1111.5
2015-Jan-26 11:33N 22°09' E 114°26'16412.6
2015-Jan-25 22:31N 23°03' E 117°13'6512.7
2015-Jan-25 17:21N 23°43' E 118°09'1112.3
2015-Jan-25 16:29N 23°52' E 118°17'1011.3
2015-Jan-25 15:33N 24°01' E 118°21'9 8.5
2015-Jan-25 14:33N 24°09' E 118°19'1110.8
2015-Jan-25 13:33N 24°18' E 118°12'1110.9
2015-Jan-25 12:33N 24°26' E 118°03'3 1.0
2015-Jan-25 09:26N 24°27' E 118°00'0 0.0
2015-Jan-25 08:20N 24°27' E 118°00'0 0.0
2015-Jan-25 06:32N 24°27' E 118°00'0 0.0
2015-Jan-25 03:32N 24°27' E 118°00'0 0.0
2015-Jan-25 02:20N 24°27' E 118°00'0 0.0
2015-Jan-25 00:32N 24°27' E 118°00'0 0.0
2015-Jan-24 23:26N 24°27' E 118°00'0 0.0
2015-Jan-24 22:32N 24°27' E 118°00'0 0.0
2015-Jan-24 21:20N 24°27' E 118°00'0 0.0
2015-Jan-24 20:20N 24°27' E 118°00'0 0.0
2015-Jan-24 18:26N 24°27' E 118°00'0 0.0
2015-Jan-24 16:32N 24°27' E 118°00'0 0.0
2015-Jan-24 06:32N 24°27' E 118°00'0 0.0
2015-Jan-24 05:32N 24°27' E 118°00'0 0.0
2015-Jan-24 04:32N 24°27' E 118°00'0 0.0
2015-Jan-24 03:14N 24°27' E 118°00'0 0.0
2015-Jan-23 23:26N 24°27' E 118°00'0 0.0
2015-Jan-23 22:20N 24°27' E 118°00'0 0.0
2015-Jan-23 21:32N 24°27' E 118°00'0 0.0
2015-Jan-23 20:26N 24°27' E 118°00'0 0.0
2015-Jan-23 19:32N 24°27' E 118°00'0 0.0
2015-Jan-23 18:26N 24°27' E 118°00'0 0.0
2015-Jan-23 17:32N 24°27' E 118°00'0 0.0
2015-Jan-23 15:08N 24°27' E 118°00'0 0.0
2015-Jan-23 09:32N 24°27' E 118°00'0 0.0
2015-Jan-23 08:32N 24°27' E 118°00'0 0.0
2015-Jan-23 06:26N 24°27' E 118°00'0 0.0
2015-Jan-23 05:26N 24°27' E 118°00'0 0.0
2015-Jan-23 03:32N 24°27' E 118°00'0 0.0
2015-Jan-23 02:26N 24°27' E 118°00'0 0.0
2015-Jan-23 01:32N 24°27' E 118°00'0 0.0
2015-Jan-22 22:08N 24°27' E 118°00'0 0.0
2015-Jan-22 21:32N 24°27' E 118°00'0 0.0
2015-Jan-22 20:20N 24°27' E 118°00'0 0.0
2015-Jan-22 18:14N 24°27' E 118°00'0 0.0
2015-Jan-22 17:20N 24°27' E 118°00'0 0.0
2015-Jan-22 16:32N 24°27' E 118°00'0 0.0
2015-Jan-22 15:32N 24°27' E 118°00'0 0.0
2015-Jan-22 14:26N 24°27' E 118°00'0 0.0
2015-Jan-22 09:26N 24°27' E 118°00'0 0.0
2015-Jan-22 08:20N 24°27' E 118°00'0 0.0
2015-Jan-22 07:20N 24°27' E 118°00'0 0.0
2015-Jan-22 06:26N 24°27' E 118°00'0 0.0
2015-Jan-22 04:32N 24°27' E 118°00'0 0.0
2015-Jan-22 02:32N 24°27' E 118°00'0 0.0
2015-Jan-22 01:26N 24°27' E 118°00'0 0.0
2015-Jan-22 00:32N 24°27' E 118°00'0 0.0
2015-Jan-21 23:32N 24°27' E 118°00'0 0.0
2015-Jan-21 22:50N 24°27' E 118°00'0 0.0
2015-Jan-21 22:26N 24°27' E 118°00'0 0.0
2015-Jan-21 21:32N 24°27' E 118°00'0 0.0
2015-Jan-21 20:32N 24°27' E 118°00'0 0.0
2015-Jan-21 19:26N 24°27' E 118°00'0 0.0
2015-Jan-21 17:26N 24°27' E 118°00'0 0.0
2015-Jan-21 16:08N 24°27' E 118°00'0 0.0
2015-Jan-21 15:32N 24°27' E 118°00'0 0.0
2015-Jan-21 14:32N 24°27' E 118°00'0 0.0
2015-Jan-21 09:20N 24°27' E 118°00'0 0.0
2015-Jan-21 08:32N 24°27' E 118°00'0 0.0
2015-Jan-21 07:31N 24°27' E 118°00'5 5.4
2015-Jan-21 06:33N 24°25' E 118°05'9 8.9
2015-Jan-21 05:30N 24°18' E 118°13'7 7.8
2015-Jan-21 04:33N 24°14' E 118°19'1 0.3
2015-Jan-21 02:29N 24°14' E 118°20'0 0.0
2015-Jan-20 22:16N 24°14' E 118°20'0 0.1
2015-Jan-20 21:22N 24°14' E 118°20'0 0.1
2015-Jan-20 20:31N 24°14' E 118°20'0 0.1
2015-Jan-20 19:31N 24°14' E 118°20'0 0.1
2015-Jan-20 18:31N 24°14' E 118°20'0 0.1
2015-Jan-20 16:22N 24°14' E 118°20'0 0.1
2015-Jan-20 14:25N 24°14' E 118°20'0 0.0
2015-Jan-20 10:17N 24°14' E 118°20'0 0.1
2015-Jan-20 08:25N 24°14' E 118°20'0 0.1
2015-Jan-20 07:11N 24°14' E 118°20'0 0.0
2015-Jan-20 05:17N 24°14' E 118°20'0 0.0
2015-Jan-20 03:19N 24°14' E 118°20'0 0.1
2015-Jan-20 01:23N 24°14' E 118°20'0 0.2
2015-Jan-20 00:19N 24°14' E 118°20'0 0.1
2015-Jan-19 23:23N 24°14' E 118°20'0 0.1
2015-Jan-19 22:29N 24°14' E 118°20'0 0.2
2015-Jan-19 21:07N 24°14' E 118°20'0 0.1
2015-Jan-19 20:23N 24°14' E 118°20'0 0.1
2015-Jan-19 19:23N 24°13' E 118°20'0 0.0
2015-Jan-19 18:13N 24°13' E 118°20'0 0.0
2015-Jan-19 17:04N 24°13' E 118°20'0 0.0
2015-Jan-19 16:25N 24°13' E 118°20'0 0.1
2015-Jan-19 15:31N 24°14' E 118°20'0 0.0
2015-Jan-19 14:31N 24°14' E 118°20'0 0.0
2015-Jan-19 13:29N 24°14' E 118°20'0 0.0
2015-Jan-19 12:29N 24°14' E 118°20'0 0.0
2015-Jan-19 11:29N 24°14' E 118°20'0 0.0
2015-Jan-19 10:04N 24°14' E 118°20'0 0.0
2015-Jan-19 09:29N 24°14' E 118°20'0 0.0
2015-Jan-19 08:29N 24°14' E 118°20'0 0.0
2015-Jan-19 07:07N 24°14' E 118°20'0 0.1
2015-Jan-19 06:19N 24°14' E 118°20'0 0.0
2015-Jan-19 05:22N 24°14' E 118°20'0 0.1
2015-Jan-19 04:19N 24°14' E 118°20'0 0.0
2015-Jan-19 03:10N 24°14' E 118°20'0 0.0
2015-Jan-19 02:13N 24°14' E 118°20'0 0.0
2015-Jan-19 01:31N 24°14' E 118°20'0 0.1
2015-Jan-19 00:31N 24°13' E 118°20'1 1.0
2015-Jan-18 23:33N 24°13' E 118°20'5 4.4
2015-Jan-18 22:30N 24°11' E 118°25'  
Track history (hours):
 
Tides and Currents Weather Stations Pressure Air Temp Water Temp Dewpoint Dewpoint Depression Visibility Wind Speed Wind Dir Waves Ship Positions

Bulk Hong Kong

Last reported at 2015-Jan-27 17:20 UTC. Time now 2015-Jan-30 04:53 UTC.
Position N 22°04' E 114°32'.

Length 289 m; draft 10.8 m.

Type: Cargo ship. MMSI: 371828000.

Date/timePositionNaut miles runAvg speedWind from/ knotsBaromVisibWave heightAir tempDewpointWater temp
2015-Jan-27 17:20N 22°04' E 114°32'0 0.0
2015-Jan-27 16:23N 22°04' E 114°32'0 0.0
2015-Jan-27 00:27N 22°04' E 114°32'0 0.2
2015-Jan-26 22:16N 22°04' E 114°32'3 4.3
2015-Jan-26 21:33N 22°04' E 114°29'1010.2
2015-Jan-26 20:33N 22°07' E 114°18'1010.5
2015-Jan-26 19:34N 22°08' E 114°07'3 1.2
2015-Jan-26 17:29N 22°10' E 114°07'2 0.6
2015-Jan-26 13:15N 22°09' E 114°09'5 6.1
2015-Jan-26 12:30N 22°08' E 114°14'1111.5
2015-Jan-26 11:33N 22°09' E 114°26'16412.6
2015-Jan-25 22:31N 23°03' E 117°13'6512.7
2015-Jan-25 17:21N 23°43' E 118°09'1112.3
2015-Jan-25 16:29N 23°52' E 118°17'1011.3
2015-Jan-25 15:33N 24°01' E 118°21'9 8.5
2015-Jan-25 14:33N 24°09' E 118°19'1110.8
2015-Jan-25 13:33N 24°18' E 118°12'1110.9
2015-Jan-25 12:33N 24°26' E 118°03'3 1.0
2015-Jan-25 09:26N 24°27' E 118°00'0 0.0
2015-Jan-25 08:20N 24°27' E 118°00'0 0.0
2015-Jan-25 06:32N 24°27' E 118°00'0 0.0
2015-Jan-25 03:32N 24°27' E 118°00'0 0.0
2015-Jan-25 02:20N 24°27' E 118°00'0 0.0
2015-Jan-25 00:32N 24°27' E 118°00'0 0.0
2015-Jan-24 23:26N 24°27' E 118°00'0 0.0
2015-Jan-24 22:32N 24°27' E 118°00'0 0.0
2015-Jan-24 21:20N 24°27' E 118°00'0 0.0
2015-Jan-24 20:20N 24°27' E 118°00'0 0.0
2015-Jan-24 18:26N 24°27' E 118°00'0 0.0
2015-Jan-24 16:32N 24°27' E 118°00'0 0.0
2015-Jan-24 06:32N 24°27' E 118°00'0 0.0
2015-Jan-24 05:32N 24°27' E 118°00'0 0.0
2015-Jan-24 04:32N 24°27' E 118°00'0 0.0
2015-Jan-24 03:14N 24°27' E 118°00'0 0.0
2015-Jan-23 23:26N 24°27' E 118°00'0 0.0
2015-Jan-23 22:20N 24°27' E 118°00'0 0.0
2015-Jan-23 21:32N 24°27' E 118°00'0 0.0
2015-Jan-23 20:26N 24°27' E 118°00'0 0.0
2015-Jan-23 19:32N 24°27' E 118°00'0 0.0
2015-Jan-23 18:26N 24°27' E 118°00'0 0.0
2015-Jan-23 17:32N 24°27' E 118°00'0 0.0
2015-Jan-23 15:08N 24°27' E 118°00'0 0.0
2015-Jan-23 09:32N 24°27' E 118°00'0 0.0
2015-Jan-23 08:32N 24°27' E 118°00'0 0.0
2015-Jan-23 06:26N 24°27' E 118°00'0 0.0
2015-Jan-23 05:26N 24°27' E 118°00'0 0.0
2015-Jan-23 03:32N 24°27' E 118°00'0 0.0
2015-Jan-23 02:26N 24°27' E 118°00'0 0.0
2015-Jan-23 01:32N 24°27' E 118°00'0 0.0
2015-Jan-22 22:08N 24°27' E 118°00'0 0.0
2015-Jan-22 21:32N 24°27' E 118°00'0 0.0
2015-Jan-22 20:20N 24°27' E 118°00'0 0.0
2015-Jan-22 18:14N 24°27' E 118°00'0 0.0
2015-Jan-22 17:20N 24°27' E 118°00'0 0.0
2015-Jan-22 16:32N 24°27' E 118°00'0 0.0
2015-Jan-22 15:32N 24°27' E 118°00'0 0.0
2015-Jan-22 14:26N 24°27' E 118°00'0 0.0
2015-Jan-22 09:26N 24°27' E 118°00'0 0.0
2015-Jan-22 08:20N 24°27' E 118°00'0 0.0
2015-Jan-22 07:20N 24°27' E 118°00'0 0.0
2015-Jan-22 06:26N 24°27' E 118°00'0 0.0
2015-Jan-22 04:32N 24°27' E 118°00'0 0.0
2015-Jan-22 02:32N 24°27' E 118°00'0 0.0
2015-Jan-22 01:26N 24°27' E 118°00'0 0.0
2015-Jan-22 00:32N 24°27' E 118°00'0 0.0
2015-Jan-21 23:32N 24°27' E 118°00'0 0.0
2015-Jan-21 22:50N 24°27' E 118°00'0 0.0
2015-Jan-21 22:26N 24°27' E 118°00'0 0.0
2015-Jan-21 21:32N 24°27' E 118°00'0 0.0
2015-Jan-21 20:32N 24°27' E 118°00'0 0.0
2015-Jan-21 19:26N 24°27' E 118°00'0 0.0
2015-Jan-21 17:26N 24°27' E 118°00'0 0.0
2015-Jan-21 16:08N 24°27' E 118°00'0 0.0
2015-Jan-21 15:32N 24°27' E 118°00'0 0.0
2015-Jan-21 14:32N 24°27' E 118°00'0 0.0
2015-Jan-21 09:20N 24°27' E 118°00'0 0.0
2015-Jan-21 08:32N 24°27' E 118°00'0 0.0
2015-Jan-21 07:31N 24°27' E 118°00'5 5.4
2015-Jan-21 06:33N 24°25' E 118°05'9 8.9
2015-Jan-21 05:30N 24°18' E 118°13'7 7.8
2015-Jan-21 04:33N 24°14' E 118°19'1 0.3
2015-Jan-21 02:29N 24°14' E 118°20'0 0.0
2015-Jan-20 22:16N 24°14' E 118°20'0 0.1
2015-Jan-20 21:22N 24°14' E 118°20'0 0.1
2015-Jan-20 20:31N 24°14' E 118°20'0 0.1
2015-Jan-20 19:31N 24°14' E 118°20'0 0.1
2015-Jan-20 18:31N 24°14' E 118°20'0 0.1
2015-Jan-20 16:22N 24°14' E 118°20'0 0.1
2015-Jan-20 14:25N 24°14' E 118°20'0 0.0
2015-Jan-20 10:17N 24°14' E 118°20'0 0.1
2015-Jan-20 08:25N 24°14' E 118°20'0 0.1
2015-Jan-20 07:11N 24°14' E 118°20'0 0.0
2015-Jan-20 05:17N 24°14' E 118°20'0 0.0
2015-Jan-20 03:19N 24°14' E 118°20'0 0.1
2015-Jan-20 01:23N 24°14' E 118°20'0 0.2
2015-Jan-20 00:19N 24°14' E 118°20'0 0.1
2015-Jan-19 23:23N 24°14' E 118°20'0 0.1
2015-Jan-19 22:29N 24°14' E 118°20'0 0.2
2015-Jan-19 21:07N 24°14' E 118°20'0 0.1
2015-Jan-19 20:23N 24°14' E 118°20'0 0.1
2015-Jan-19 19:23N 24°13' E 118°20'0 0.0
2015-Jan-19 18:13N 24°13' E 118°20'0 0.0
2015-Jan-19 17:04N 24°13' E 118°20'0 0.0
2015-Jan-19 16:25N 24°13' E 118°20'0 0.1
2015-Jan-19 15:31N 24°14' E 118°20'0 0.0
2015-Jan-19 14:31N 24°14' E 118°20'0 0.0
2015-Jan-19 13:29N 24°14' E 118°20'0 0.0
2015-Jan-19 12:29N 24°14' E 118°20'0 0.0
2015-Jan-19 11:29N 24°14' E 118°20'0 0.0
2015-Jan-19 10:04N 24°14' E 118°20'0 0.0
2015-Jan-19 09:29N 24°14' E 118°20'0 0.0
2015-Jan-19 08:29N 24°14' E 118°20'0 0.0
2015-Jan-19 07:07N 24°14' E 118°20'0 0.1
2015-Jan-19 06:19N 24°14' E 118°20'0 0.0
2015-Jan-19 05:22N 24°14' E 118°20'0 0.1
2015-Jan-19 04:19N 24°14' E 118°20'0 0.0
2015-Jan-19 03:10N 24°14' E 118°20'0 0.0
2015-Jan-19 02:13N 24°14' E 118°20'0 0.0
2015-Jan-19 01:31N 24°14' E 118°20'0 0.1
2015-Jan-19 00:31N 24°13' E 118°20'1 1.0
2015-Jan-18 23:33N 24°13' E 118°20'5 4.4
2015-Jan-18 22:30N 24°11' E 118°25'  

Dump ship's entire track history